createdAt,value
2019-04-01T00:00:54.270Z,99.90
2019-04-01T00:03:23.086Z,99.90
2019-04-01T00:05:51.923Z,99.90
2019-04-01T00:08:20.899Z,99.90
2019-04-01T00:10:49.852Z,99.90
2019-04-01T00:13:18.777Z,99.90
2019-04-01T00:15:47.756Z,99.90
2019-04-01T00:18:16.580Z,99.90
2019-04-01T00:20:45.428Z,99.90
2019-04-01T00:23:14.250Z,99.90
2019-04-01T00:25:43.159Z,99.90
2019-04-01T00:28:11.971Z,99.90
2019-04-01T00:30:40.826Z,99.90
2019-04-01T00:33:09.639Z,99.90
2019-04-01T00:35:38.559Z,99.90
2019-04-01T00:38:07.402Z,99.90
2019-04-01T00:40:36.248Z,99.90
2019-04-01T00:43:29.403Z,99.90
2019-04-01T00:45:58.720Z,99.90
2019-04-01T00:48:27.518Z,99.90
2019-04-01T00:50:56.343Z,99.90
2019-04-01T00:53:25.160Z,99.90
2019-04-01T00:55:54.003Z,99.90
2019-04-01T00:58:22.824Z,99.90
2019-04-01T01:00:51.653Z,99.90
2019-04-01T01:03:20.530Z,99.90
2019-04-01T01:05:49.363Z,99.90
2019-04-01T01:08:18.184Z,99.90
2019-04-01T01:10:47.119Z,99.90
2019-04-01T01:13:15.942Z,99.90
2019-04-01T01:15:44.851Z,99.90
2019-04-01T01:18:13.656Z,99.90
2019-04-01T01:20:42.490Z,99.90
2019-04-01T01:23:11.311Z,99.90
2019-04-01T01:25:40.211Z,99.90
2019-04-01T01:28:09.312Z,99.90
2019-04-01T01:30:38.199Z,99.90
2019-04-01T01:33:07.093Z,99.90
2019-04-01T01:35:35.916Z,99.90
2019-04-01T01:38:04.807Z,99.90
2019-04-01T01:40:33.751Z,99.90
2019-04-01T01:43:02.581Z,99.90
2019-04-01T01:45:31.452Z,99.90
2019-04-01T01:48:00.263Z,99.90
2019-04-01T01:50:29.076Z,99.90
2019-04-01T01:52:57.970Z,99.90
2019-04-01T01:55:26.789Z,99.90
2019-04-01T01:57:55.679Z,99.90
2019-04-01T02:00:26.066Z,99.90
2019-04-01T02:02:54.893Z,99.90
2019-04-01T02:05:23.710Z,99.90
2019-04-01T02:07:52.536Z,99.90
2019-04-01T02:10:21.459Z,99.90
2019-04-01T02:12:50.331Z,99.90
2019-04-01T02:15:19.224Z,99.90
2019-04-01T02:17:48.200Z,99.90
2019-04-01T02:20:17.007Z,99.90
2019-04-01T02:22:45.831Z,99.90
2019-04-01T02:25:14.684Z,99.90
2019-04-01T02:27:43.499Z,99.90
2019-04-01T02:30:12.464Z,99.90
2019-04-01T02:32:41.371Z,99.90
2019-04-01T02:35:10.364Z,99.90
2019-04-01T02:37:39.250Z,99.90
2019-04-01T02:40:08.724Z,99.90
2019-04-01T02:42:37.546Z,99.90
2019-04-01T02:45:06.573Z,99.90
2019-04-01T02:47:35.404Z,99.90
2019-04-01T02:50:04.765Z,99.90
2019-04-01T02:52:33.587Z,99.90
2019-04-01T02:55:06.607Z,99.90
2019-04-01T02:57:33.172Z,99.90
2019-04-01T03:00:02.131Z,99.90
2019-04-01T03:02:31.027Z,99.90
2019-04-01T03:04:59.842Z,99.90
2019-04-01T03:07:28.664Z,99.90
2019-04-01T03:09:57.497Z,99.90
2019-04-01T03:12:26.315Z,99.90
2019-04-01T03:14:55.196Z,99.90
2019-04-01T03:17:24.178Z,99.90
2019-04-01T03:19:52.982Z,99.90
2019-04-01T03:22:21.972Z,99.90
2019-04-01T03:24:50.862Z,99.90
2019-04-01T03:27:19.705Z,99.90
2019-04-01T03:29:49.091Z,99.90
2019-04-01T03:32:17.981Z,99.90
2019-04-01T03:34:46.881Z,99.90
2019-04-01T03:37:15.783Z,99.90
2019-04-01T03:39:44.708Z,99.90
2019-04-01T03:42:13.592Z,99.90
2019-04-01T03:44:42.652Z,99.90
2019-04-01T03:47:11.480Z,99.90
2019-04-01T03:49:40.302Z,99.90
2019-04-01T03:52:10.400Z,99.90
2019-04-01T03:54:39.702Z,99.90
2019-04-01T03:57:08.679Z,99.90
2019-04-01T03:59:37.499Z,99.90
2019-04-01T04:02:06.322Z,99.90
2019-04-01T04:04:35.215Z,99.90
2019-04-01T04:07:04.035Z,99.90
2019-04-01T04:09:32.881Z,99.90
2019-04-01T04:12:01.841Z,99.90
2019-04-01T04:14:30.693Z,99.90
2019-04-01T04:16:59.651Z,99.90
2019-04-01T04:19:28.575Z,99.90
2019-04-01T04:21:57.472Z,99.90
2019-04-01T04:24:26.494Z,99.90
2019-04-01T04:26:55.313Z,99.90
2019-04-01T04:29:24.198Z,99.90
2019-04-01T04:31:53.086Z,99.90
2019-04-01T04:34:21.949Z,99.90
2019-04-01T04:36:50.765Z,99.90
2019-04-01T04:39:19.590Z,99.90
2019-04-01T04:41:48.408Z,99.90
2019-04-01T04:44:17.299Z,99.90
2019-04-01T04:46:46.115Z,99.90
2019-04-01T04:49:14.950Z,99.90
2019-04-01T04:51:43.762Z,99.90
2019-04-01T04:54:12.969Z,99.90
2019-04-01T04:56:41.795Z,99.90
2019-04-01T04:59:10.610Z,99.90
2019-04-01T05:01:39.407Z,99.90
2019-04-01T05:04:08.399Z,99.90
2019-04-01T05:06:37.312Z,99.90
2019-04-01T05:09:07.083Z,99.90
2019-04-01T05:11:35.894Z,99.90
2019-04-01T05:14:04.827Z,99.90
2019-04-01T05:16:33.791Z,99.90
2019-04-01T05:19:02.619Z,99.90
2019-04-01T05:21:32.370Z,99.90
2019-04-01T05:24:01.617Z,99.90
2019-04-01T05:26:31.607Z,99.90
2019-04-01T05:29:02.508Z,99.90
2019-04-01T05:31:33.304Z,99.90
2019-04-01T05:34:02.416Z,99.90
2019-04-01T05:36:32.066Z,99.90
2019-04-01T05:39:00.923Z,99.90
2019-04-01T05:41:30.010Z,99.90
2019-04-01T05:44:02.136Z,99.90
2019-04-01T05:46:30.063Z,99.90
2019-04-01T05:48:58.943Z,99.90
2019-04-01T05:51:28.229Z,99.90
2019-04-01T05:53:57.137Z,99.90
2019-04-01T05:56:26.147Z,99.90
2019-04-01T05:58:55.176Z,99.90
2019-04-01T06:01:35.181Z,99.90
2019-04-01T06:04:04.402Z,99.90
2019-04-01T06:06:33.296Z,99.90
2019-04-01T06:09:02.183Z,99.90
2019-04-01T06:11:31.905Z,99.90
2019-04-01T06:14:01.082Z,99.90
2019-04-01T06:16:29.898Z,99.90
2019-04-01T06:18:58.812Z,99.90
2019-04-01T06:21:28.259Z,99.90
2019-04-01T06:23:57.199Z,99.90
2019-04-01T06:26:26.208Z,99.90
2019-04-01T06:28:55.026Z,99.90
2019-04-01T06:31:23.928Z,99.90
2019-04-01T06:33:53.088Z,99.90
2019-04-01T06:36:22.359Z,99.90
2019-04-01T06:38:51.370Z,99.90
2019-04-01T06:41:20.355Z,99.90
2019-04-01T06:43:49.330Z,99.90
2019-04-01T06:46:21.088Z,99.90
2019-04-01T06:48:49.971Z,99.90
2019-04-01T06:51:19.054Z,99.90
2019-04-01T06:53:48.138Z,99.90
2019-04-01T06:56:17.119Z,99.90
2019-04-01T06:58:46.004Z,99.90
2019-04-01T07:01:15.167Z,99.90
2019-04-01T07:03:44.059Z,99.90
2019-04-01T07:06:13.015Z,99.90
2019-04-01T07:08:42.022Z,99.90
2019-04-01T07:11:11.031Z,99.90
2019-04-01T07:13:40.389Z,99.90
2019-04-01T07:16:15.678Z,99.90
2019-04-01T07:18:40.178Z,99.90
2019-04-01T07:21:09.074Z,99.90
2019-04-01T07:23:38.045Z,99.90
2019-04-01T07:26:07.023Z,99.90
2019-04-01T07:28:35.854Z,99.90
2019-04-01T07:31:04.879Z,99.90
2019-04-01T07:33:34.151Z,99.90
2019-04-01T07:36:03.171Z,99.90
2019-04-01T07:38:32.207Z,99.90
2019-04-01T07:41:01.507Z,99.90
2019-04-01T07:43:30.521Z,99.90
2019-04-01T07:46:00.152Z,99.90
2019-04-01T07:48:29.207Z,99.90
2019-04-01T07:50:58.293Z,99.90
2019-04-01T07:53:27.340Z,99.90
2019-04-01T07:55:56.299Z,99.90
2019-04-01T07:58:25.203Z,99.90
2019-04-01T08:00:54.916Z,99.90
2019-04-01T08:03:24.041Z,99.90
2019-04-01T08:05:53.197Z,99.90
2019-04-01T08:08:22.195Z,99.90
2019-04-01T08:10:51.203Z,99.90
2019-04-01T08:13:20.184Z,99.90
2019-04-01T08:15:49.134Z,99.90
2019-04-01T08:18:18.175Z,99.90
2019-04-01T08:20:47.115Z,99.90
2019-04-01T08:23:16.007Z,99.90
2019-04-01T08:25:47.761Z,99.90
2019-04-01T08:28:15.722Z,99.90
2019-04-01T08:30:44.625Z,99.90
2019-04-01T08:33:13.645Z,99.90
2019-04-01T08:35:42.598Z,99.90
2019-04-01T08:38:11.783Z,99.90
2019-04-01T08:40:40.689Z,99.90
2019-04-01T08:43:09.699Z,99.90
2019-04-01T08:45:38.586Z,99.90
2019-04-01T08:48:07.439Z,99.90
2019-04-01T08:50:37.060Z,99.90
2019-04-01T08:53:05.982Z,99.90
2019-04-01T08:55:34.868Z,99.90
2019-04-01T08:58:03.846Z,99.90
2019-04-01T09:00:32.779Z,99.90
2019-04-01T09:03:01.599Z,99.90
2019-04-01T09:05:30.499Z,99.90
2019-04-01T09:07:59.797Z,99.90
2019-04-01T09:10:28.991Z,99.90
2019-04-01T09:12:58.396Z,99.90
2019-04-01T09:15:27.434Z,99.90
2019-04-01T09:17:56.477Z,99.90
2019-04-01T09:20:25.551Z,99.90
2019-04-01T09:22:54.504Z,99.90
2019-04-01T09:25:23.452Z,99.90
2019-04-01T09:27:52.401Z,99.90
2019-04-01T09:30:21.392Z,99.90
2019-04-01T09:32:50.473Z,99.90
2019-04-01T09:35:19.442Z,99.90
2019-04-01T09:37:48.394Z,99.90
2019-04-01T09:40:17.882Z,98.80
2019-04-01T09:42:46.799Z,99.30
2019-04-01T09:45:15.850Z,98.30
2019-04-01T09:47:44.738Z,98.50
2019-04-01T09:50:14.128Z,99.00
2019-04-01T09:52:43.144Z,97.40
2019-04-01T09:55:12.172Z,99.90
2019-04-01T09:57:41.160Z,97.60
2019-04-01T10:00:12.091Z,99.90
2019-04-01T10:02:41.094Z,98.20
2019-04-01T10:05:10.483Z,95.90
2019-04-01T10:07:39.490Z,98.80
2019-04-01T10:10:08.847Z,97.20
2019-04-01T10:12:37.771Z,94.40
2019-04-01T10:15:07.311Z,94.80
2019-04-01T10:17:36.250Z,96.00
2019-04-01T10:20:06.530Z,95.60
2019-04-01T10:22:35.470Z,96.70
2019-04-01T10:25:04.502Z,99.70
2019-04-01T10:27:33.406Z,96.70
2019-04-01T10:30:02.515Z,94.50
2019-04-01T10:32:31.644Z,96.00
2019-04-01T10:35:00.476Z,90.40
2019-04-01T10:37:29.466Z,90.10
2019-04-01T10:40:00.162Z,93.50
2019-04-01T10:42:29.032Z,90.70
2019-04-01T10:44:58.112Z,91.10
2019-04-01T10:47:27.034Z,88.40
2019-04-01T10:49:56.112Z,84.70
2019-04-01T10:52:25.037Z,85.40
2019-04-01T10:54:54.098Z,82.60
2019-04-01T10:57:23.197Z,86.20
2019-04-01T10:59:52.287Z,88.00
2019-04-01T11:02:21.370Z,88.40
2019-04-01T11:04:50.403Z,90.80
2019-04-01T11:07:19.268Z,84.00
2019-04-01T11:09:48.498Z,84.40
2019-04-01T11:12:17.333Z,86.00
2019-04-01T11:14:46.286Z,82.90
2019-04-01T11:17:15.404Z,90.00
2019-04-01T11:19:44.751Z,82.70
2019-04-01T11:22:13.679Z,80.10
2019-04-01T11:24:42.611Z,80.80
2019-04-01T11:27:11.602Z,83.40
2019-04-01T11:29:40.435Z,74.60
2019-04-01T11:32:13.095Z,74.40
2019-04-01T11:34:39.990Z,77.20
2019-04-01T11:37:08.929Z,76.40
2019-04-01T11:39:37.844Z,83.30
2019-04-01T11:42:06.796Z,71.10
2019-04-01T11:44:35.993Z,74.20
2019-04-01T11:47:05.168Z,76.10
2019-04-01T11:49:34.226Z,74.40
2019-04-01T11:52:03.166Z,74.70
2019-04-01T11:54:32.298Z,76.50
2019-04-01T11:57:01.215Z,77.20
2019-04-01T11:59:30.206Z,85.60
2019-04-01T12:01:59.224Z,76.40
2019-04-01T12:04:28.187Z,77.40
2019-04-01T12:06:57.083Z,79.30
2019-04-01T12:09:27.082Z,75.10
2019-04-01T12:11:56.662Z,77.50
2019-04-01T12:14:25.712Z,76.40
2019-04-01T12:16:54.737Z,73.90
2019-04-01T12:19:23.643Z,75.10
2019-04-01T12:21:52.511Z,72.20
2019-04-01T12:24:21.433Z,71.60
2019-04-01T12:26:50.360Z,74.40
2019-04-01T12:29:19.261Z,74.70
2019-04-01T12:31:48.087Z,76.70
2019-04-01T12:34:17.718Z,75.50
2019-04-01T12:36:46.686Z,80.20
2019-04-01T12:39:15.764Z,73.60
2019-04-01T12:41:44.689Z,71.40
2019-04-01T12:44:13.794Z,74.60
2019-04-01T12:46:42.710Z,76.50
2019-04-01T12:49:11.725Z,75.40
2019-04-01T12:51:40.624Z,72.60
2019-04-01T12:54:09.891Z,74.70
2019-04-01T12:56:38.736Z,73.30
2019-04-01T12:59:07.682Z,75.40
2019-04-01T13:01:36.549Z,75.10
2019-04-01T13:04:05.510Z,81.50
2019-04-01T13:06:34.592Z,81.60
2019-04-01T13:09:05.987Z,81.50
2019-04-01T13:11:34.891Z,77.70
2019-04-01T13:14:04.379Z,75.70
2019-04-01T13:16:33.357Z,74.20
2019-04-01T13:19:02.191Z,77.70
2019-04-01T13:21:34.493Z,80.10
2019-04-01T13:24:01.815Z,75.00
2019-04-01T13:26:31.107Z,76.30
2019-04-01T13:29:00.073Z,74.10
2019-04-01T13:31:28.980Z,78.20
2019-04-01T13:33:57.983Z,74.60
2019-04-01T13:36:26.836Z,78.30
2019-04-01T13:38:55.891Z,76.80
2019-04-01T13:41:25.184Z,73.50
2019-04-01T13:43:54.288Z,73.40
2019-04-01T13:46:23.226Z,72.70
2019-04-01T13:48:57.945Z,72.10
2019-04-01T13:51:22.766Z,74.70
2019-04-01T13:53:51.680Z,75.00
2019-04-01T13:56:20.615Z,80.60
2019-04-01T13:58:49.598Z,76.10
2019-04-01T14:01:18.597Z,75.90
2019-04-01T14:03:47.627Z,76.40
2019-04-01T14:06:16.509Z,73.60
2019-04-01T14:08:45.398Z,70.10
2019-04-01T14:11:14.347Z,71.10
2019-04-01T14:13:43.271Z,74.50
2019-04-01T14:16:12.261Z,73.20
2019-04-01T14:18:41.194Z,73.20
2019-04-01T14:21:17.502Z,69.60
2019-04-01T14:23:40.727Z,78.00
2019-04-01T14:26:09.578Z,69.10
2019-04-01T14:28:38.549Z,69.00
2019-04-01T14:31:07.551Z,70.40
2019-04-01T14:33:36.419Z,75.20
2019-04-01T14:36:05.428Z,67.50
2019-04-01T14:38:34.320Z,72.10
2019-04-01T14:41:03.498Z,77.20
2019-04-01T14:43:32.362Z,71.40
2019-04-01T14:46:01.215Z,72.50
2019-04-01T14:48:30.716Z,75.20
2019-04-01T14:50:59.986Z,68.70
2019-04-01T14:53:28.885Z,69.60
2019-04-01T14:55:58.970Z,69.20
2019-04-01T14:58:28.123Z,79.10
2019-04-01T15:00:56.983Z,71.30
2019-04-01T15:03:45.177Z,74.20
2019-04-01T15:06:14.090Z,70.70
2019-04-01T15:08:42.990Z,75.90
2019-04-01T15:11:12.443Z,73.50
2019-04-01T15:13:41.710Z,75.10
2019-04-01T15:16:10.652Z,76.50
2019-04-01T15:18:39.619Z,76.00
2019-04-01T15:21:11.423Z,75.40
2019-04-01T15:23:39.383Z,76.50
2019-04-01T15:26:08.381Z,78.50
2019-04-01T15:28:37.323Z,78.10
2019-04-01T15:31:06.275Z,76.00
2019-04-01T15:33:35.187Z,76.00
2019-04-01T15:36:04.363Z,77.00
2019-04-01T15:38:33.260Z,79.80
2019-04-01T15:41:02.267Z,83.20
2019-04-01T15:43:31.210Z,76.50
2019-04-01T15:46:03.745Z,82.00
2019-04-01T15:48:30.649Z,77.60
2019-04-01T15:50:59.567Z,76.50
2019-04-01T15:53:28.427Z,78.20
2019-04-01T15:55:57.291Z,77.60
2019-04-01T15:58:26.312Z,77.10
2019-04-01T16:00:55.496Z,83.20
2019-04-01T16:03:24.410Z,84.20
2019-04-01T16:05:53.343Z,81.20
2019-04-01T16:08:22.251Z,85.70
2019-04-01T16:10:51.328Z,82.20
2019-04-01T16:13:20.367Z,79.50
2019-04-01T16:15:49.294Z,77.90
2019-04-01T16:18:18.561Z,81.00
2019-04-01T16:20:47.567Z,82.90
2019-04-01T16:23:16.434Z,85.40
2019-04-01T16:25:45.380Z,82.20
2019-04-01T16:28:14.428Z,81.80
2019-04-01T16:30:43.391Z,81.10
2019-04-01T16:33:12.388Z,80.20
2019-04-01T16:35:41.406Z,79.20
2019-04-01T16:38:10.379Z,80.50
2019-04-01T16:40:39.259Z,78.80
2019-04-01T16:43:08.163Z,84.10
2019-04-01T16:45:37.131Z,83.20
2019-04-01T16:48:06.136Z,87.50
2019-04-01T16:50:35.126Z,82.60
2019-04-01T16:53:04.198Z,82.30
2019-04-01T16:55:33.127Z,82.10
2019-04-01T16:58:03.072Z,82.80
2019-04-01T17:00:32.251Z,87.30
2019-04-01T17:03:01.111Z,86.50
2019-04-01T17:05:33.842Z,86.30
2019-04-01T17:08:02.986Z,87.60
2019-04-01T17:10:33.070Z,87.10
2019-04-01T17:13:02.323Z,87.60
2019-04-01T17:15:31.460Z,86.40
2019-04-01T17:18:00.422Z,85.20
2019-04-01T17:20:29.392Z,84.10
2019-04-01T17:22:58.575Z,87.50
2019-04-01T17:25:27.758Z,84.70
2019-04-01T17:27:56.781Z,86.70
2019-04-01T17:30:44.995Z,90.90
2019-04-01T17:33:13.976Z,92.20
2019-04-01T17:35:43.063Z,91.80
2019-04-01T17:38:13.818Z,92.00
2019-04-01T17:40:44.055Z,92.30
2019-04-01T17:43:13.669Z,91.90
2019-04-01T17:45:42.856Z,93.20
2019-04-01T17:48:11.879Z,93.30
2019-04-01T17:50:40.975Z,93.70
2019-04-01T17:53:11.152Z,93.80
2019-04-01T17:55:40.245Z,94.90
2019-04-01T17:58:09.233Z,95.30
2019-04-01T18:00:42.442Z,95.60
2019-04-01T18:03:11.520Z,97.00
2019-04-01T18:08:09.154Z,99.90
2019-04-01T18:10:38.175Z,99.90
2019-04-01T18:13:07.124Z,99.90
2019-04-01T18:15:36.035Z,99.90
2019-04-01T18:18:05.010Z,99.90
2019-04-01T18:20:34.460Z,99.90
2019-04-01T18:23:03.767Z,99.90
2019-04-01T18:25:32.600Z,99.90
2019-04-01T18:28:01.639Z,99.90
2019-04-01T18:30:30.635Z,99.90
2019-04-01T18:33:00.211Z,99.90
2019-04-01T18:35:29.410Z,99.90
2019-04-01T18:37:58.271Z,99.90
2019-04-01T18:40:33.292Z,99.90
2019-04-01T18:42:57.833Z,99.90
2019-04-01T18:45:26.828Z,99.90
2019-04-01T18:47:55.759Z,99.90
2019-04-01T18:50:24.720Z,99.90
2019-04-01T18:52:53.519Z,99.90
2019-04-01T18:55:22.408Z,99.90
2019-04-01T18:57:51.222Z,99.90
2019-04-01T19:00:29.359Z,99.90
2019-04-01T19:02:58.178Z,99.90
2019-04-01T19:05:27.992Z,99.90
2019-04-01T19:07:56.946Z,99.90
2019-04-01T19:10:26.041Z,99.90
2019-04-01T19:13:05.884Z,99.90
2019-04-01T19:15:26.515Z,99.90
2019-04-01T19:17:55.947Z,99.90
2019-04-01T19:20:24.891Z,99.90
2019-04-01T19:22:53.782Z,99.90
2019-04-01T19:25:23.369Z,99.90
2019-04-01T19:27:52.546Z,99.90
2019-04-01T19:30:21.957Z,99.90
2019-04-01T19:32:51.051Z,99.90
2019-04-01T19:35:20.043Z,99.90
2019-04-01T19:37:48.974Z,99.90
2019-04-01T19:40:20.533Z,99.90
2019-04-01T19:42:48.768Z,99.90
2019-04-01T19:45:17.790Z,99.90
2019-04-01T19:47:46.713Z,99.90
2019-04-01T19:50:18.418Z,99.90
2019-04-01T19:52:46.557Z,99.90
2019-04-01T19:55:15.543Z,99.90
2019-04-01T19:57:44.495Z,99.90
2019-04-01T20:00:26.638Z,99.90
2019-04-01T20:02:44.414Z,99.90
2019-04-01T20:05:13.505Z,99.90
2019-04-01T20:07:44.177Z,99.90
2019-04-01T20:10:13.861Z,99.90
2019-04-01T20:12:42.939Z,99.90
2019-04-01T20:15:12.552Z,99.90
2019-04-01T20:17:41.840Z,99.90
2019-04-01T20:20:14.276Z,99.90
2019-04-01T20:22:41.761Z,99.90
2019-04-01T20:25:10.934Z,99.90
2019-04-01T20:27:39.799Z,99.90
2019-04-01T20:30:09.731Z,99.90
2019-04-01T20:32:38.726Z,99.90
2019-04-01T20:35:07.922Z,99.90
2019-04-01T20:37:36.866Z,99.90
2019-04-01T20:40:06.260Z,99.90
2019-04-01T20:42:35.210Z,99.90
2019-04-01T20:45:04.533Z,99.90
2019-04-01T20:47:36.415Z,99.90
2019-04-01T20:50:06.723Z,99.90
2019-04-01T20:52:35.757Z,99.90
2019-04-01T20:55:05.185Z,99.90
2019-04-01T20:57:34.342Z,99.90
2019-04-01T21:00:03.728Z,99.90
2019-04-01T21:02:33.081Z,99.90
2019-04-01T21:05:02.411Z,99.90
2019-04-01T21:07:31.309Z,99.90
2019-04-01T21:10:00.228Z,99.90
2019-04-01T21:12:29.049Z,99.90
2019-04-01T21:14:57.898Z,99.90
2019-04-01T21:17:26.819Z,99.90
2019-04-01T21:19:55.747Z,99.90
2019-04-01T21:22:24.613Z,99.90
2019-04-01T21:24:53.535Z,99.90
2019-04-01T21:27:23.189Z,99.90
2019-04-01T21:29:53.095Z,99.90
2019-04-01T21:32:22.075Z,99.90
2019-04-01T21:34:50.990Z,99.90
2019-04-01T21:37:19.955Z,99.90
2019-04-01T21:39:48.799Z,99.90
2019-04-01T21:42:17.631Z,99.90
2019-04-01T21:44:47.090Z,99.90
2019-04-01T21:47:16.446Z,99.90
2019-04-01T21:49:45.408Z,99.90
2019-04-01T21:52:14.362Z,99.90
2019-04-01T21:54:43.310Z,99.90
2019-04-01T21:57:12.267Z,99.90
2019-04-01T21:59:41.188Z,99.90
2019-04-01T22:02:10.346Z,99.90
2019-04-01T22:04:39.235Z,99.90
2019-04-01T22:07:08.160Z,99.90
2019-04-01T22:09:37.059Z,99.90
2019-04-01T22:12:06.043Z,99.90
2019-04-01T22:14:34.876Z,99.90
2019-04-01T22:17:03.769Z,99.90
2019-04-01T22:19:32.635Z,99.90
2019-04-01T22:22:01.482Z,99.90
2019-04-01T22:24:30.414Z,99.90
2019-04-01T22:26:59.298Z,99.90
2019-04-01T22:29:28.147Z,99.90
2019-04-01T22:31:56.970Z,99.90
2019-04-01T22:34:25.974Z,99.90
2019-04-01T22:36:54.831Z,99.90
2019-04-01T22:39:27.250Z,99.90
2019-04-01T22:41:54.239Z,99.90
2019-04-01T22:44:23.360Z,99.90
2019-04-01T22:46:52.767Z,99.90
2019-04-01T22:49:21.705Z,99.90
2019-04-01T22:51:50.566Z,99.90
2019-04-01T22:54:19.494Z,99.90
2019-04-01T22:56:48.482Z,99.90
2019-04-01T22:59:17.335Z,99.90
2019-04-01T23:01:46.199Z,99.90
2019-04-01T23:04:15.047Z,99.90
2019-04-01T23:06:43.987Z,99.90
2019-04-01T23:09:13.006Z,99.90
2019-04-01T23:11:41.884Z,99.90
2019-04-01T23:14:10.735Z,99.90
2019-04-01T23:16:41.201Z,99.90
2019-04-01T23:19:10.901Z,99.90
2019-04-01T23:21:39.883Z,99.90
2019-04-01T23:24:08.739Z,99.90
2019-04-01T23:26:37.646Z,99.90
2019-04-01T23:29:06.647Z,99.90
2019-04-01T23:31:38.267Z,99.90
2019-04-01T23:34:06.318Z,99.90
2019-04-01T23:36:35.281Z,99.90
2019-04-01T23:39:05.978Z,99.90
2019-04-01T23:41:34.831Z,99.90
2019-04-01T23:44:03.818Z,99.90
2019-04-01T23:46:32.731Z,99.90
2019-04-01T23:49:01.584Z,99.90
2019-04-01T23:51:30.549Z,99.90
2019-04-01T23:53:59.462Z,99.90
2019-04-01T23:56:28.314Z,99.90
2019-04-01T23:58:57.154Z,99.90
